FQPB

Details ICAO FQPB (POL)
Name PEMBA
Region Mozambique
Timezone Africa/Maputo (UTC+2.0)
Plans Departing 8
Arriving 13
Stats Elevation 331 ft / 101 m (AMSL)
Location -12.990248° 40.522720°
Runways 2
Magnetic Variation 6.712° W
Sunrise 2017-12-16 02:48:18 UTC / 2017-12-16 04:48:18 Local
Sunset 2017-12-16 15:41:27 UTC / 2017-12-16 17:41:27 Local
Advertisement - Login to hide

Runways

ID Width Length Bearing (true) Bearing (mag) Surface Threshold Offset Overrun Length
08 98 ft / 30 m 2,631 ft / 802 m 76.61° 83.32° Asphalt 0 ft / 0 m 0 ft / 0 m
17 148 ft / 45 m 5,939 ft / 1,810 m 160.76° 167.47° Asphalt 0 ft / 0 m 0 ft / 0 m
26 98 ft / 30 m 2,631 ft / 802 m 256.61° 263.32° Asphalt 0 ft / 0 m 0 ft / 0 m
35 148 ft / 45 m 5,939 ft / 1,810 m 340.76° 347.47° Asphalt 0 ft / 0 m 0 ft / 0 m

Map

Weather


0- 5 10 15 20 25 30 35+ Temperature / ° C

Clouds and Precipitation
Forecast for 2017-12-16 18:00 UTC. Updated 17 minutes ago

Ground ~20,000 ft ~40,000 ft Winds

METAR

Not found

TAF

TAF FQPB 160400Z 1606/1706 16008KT 9999 BKN020 PROB30 TEMPO 1609/1616 5000 RADZ SCT010 BKN020 FEW025CB BECMG 1612/1614 10010KT BECMG 1618/1620 VRB07KT 9999 BKN020 BECMG 1700/1702 22007KT TX32/1613Z TN26/1703Z

Frequencies

Tower 118.40 MHz TWR
Warning: Do not use this data for real-world aviation or navigation. No guarantee of current accuracy is given.